createdAt,value
2022-08-21T00:01:42.468Z,58.12
2022-08-21T00:04:10.882Z,62.00
2022-08-21T00:06:42.126Z,62.00
2022-08-21T00:09:10.874Z,62.32
2022-08-21T00:11:39.344Z,60.00
2022-08-21T00:14:08.061Z,60.11
2022-08-21T00:16:36.025Z,58.94
2022-08-21T00:19:04.112Z,60.68
2022-08-21T00:21:31.766Z,60.59
2022-08-21T00:23:59.775Z,60.89
2022-08-21T00:26:27.725Z,60.11
2022-08-21T00:28:55.446Z,57.90
2022-08-21T00:31:23.960Z,57.73
2022-08-21T00:33:51.489Z,61.45
2022-08-21T00:36:19.153Z,59.27
2022-08-21T00:38:47.447Z,59.89
2022-08-21T00:41:36.997Z,62.12
2022-08-21T00:44:02.988Z,57.57
2022-08-21T00:46:30.719Z,62.66
2022-08-21T00:48:59.097Z,60.72
2022-08-21T00:51:33.628Z,62.98
2022-08-21T00:54:11.620Z,60.55
2022-08-21T00:56:49.360Z,61.78
2022-08-21T00:59:18.407Z,61.39
2022-08-21T01:01:46.668Z,59.53
2022-08-21T01:04:14.651Z,62.14
2022-08-21T01:06:42.306Z,59.46
2022-08-21T01:09:10.432Z,62.32
2022-08-21T01:11:38.935Z,60.69
2022-08-21T01:14:06.747Z,61.24
2022-08-21T01:16:34.856Z,61.42
2022-08-21T01:19:02.532Z,63.60
2022-08-21T01:21:30.333Z,60.72
2022-08-21T01:23:58.744Z,60.55
2022-08-21T01:26:32.686Z,60.88
2022-08-21T01:29:31.880Z,65.39
2022-08-21T01:32:00.826Z,62.31
2022-08-21T01:34:28.728Z,65.17
2022-08-21T01:36:56.351Z,60.82
2022-08-21T01:39:23.950Z,63.06
2022-08-21T01:41:51.906Z,65.33
2022-08-21T01:44:21.866Z,62.98
2022-08-21T01:46:49.647Z,66.49
2022-08-21T01:49:17.638Z,64.62
2022-08-21T01:51:45.427Z,66.38
2022-08-21T01:54:13.374Z,65.36
2022-08-21T01:56:45.593Z,63.33
2022-08-21T01:59:13.301Z,64.22
2022-08-21T02:01:41.281Z,63.29
2022-08-21T02:04:10.585Z,65.12
2022-08-21T02:06:38.488Z,61.45
2022-08-21T02:09:07.521Z,62.74
2022-08-21T02:11:35.936Z,64.31
2022-08-21T02:14:03.780Z,65.53
2022-08-21T02:16:31.283Z,63.09
2022-08-21T02:19:00.654Z,62.56
2022-08-21T02:21:28.223Z,62.77
2022-08-21T02:23:55.810Z,66.07
2022-08-21T02:26:24.036Z,66.23
2022-08-21T02:28:51.709Z,66.06
2022-08-21T02:31:19.403Z,62.90
2022-08-21T02:33:47.683Z,65.38
2022-08-21T02:36:15.804Z,65.87
2022-08-21T02:38:44.261Z,65.29
2022-08-21T02:41:14.218Z,66.06
2022-08-21T02:43:42.738Z,62.16
2022-08-21T02:46:13.151Z,64.30
2022-08-21T02:48:41.290Z,62.43
2022-08-21T02:51:11.948Z,64.02
2022-08-21T02:53:39.516Z,64.08
2022-08-21T02:56:08.698Z,62.86
2022-08-21T02:58:38.307Z,65.57
2022-08-21T03:01:09.706Z,65.07
2022-08-21T03:03:39.158Z,62.93
2022-08-21T03:06:08.640Z,63.29
2022-08-21T03:08:36.907Z,63.99
2022-08-21T03:11:05.306Z,62.81
2022-08-21T03:13:35.237Z,64.36
2022-08-21T03:16:02.850Z,61.67
2022-08-21T03:18:33.534Z,64.10
2022-08-21T03:21:01.355Z,63.41
2022-08-21T03:23:32.551Z,63.51
2022-08-21T03:26:00.919Z,63.81
2022-08-21T03:28:28.652Z,63.61
2022-08-21T03:30:56.605Z,60.18
2022-08-21T03:33:24.599Z,63.26
2022-08-21T03:36:01.810Z,61.60
2022-08-21T03:38:31.861Z,61.84
2022-08-21T03:41:00.150Z,61.94
2022-08-21T03:43:27.955Z,60.23
2022-08-21T03:46:02.200Z,61.99
2022-08-21T03:48:30.233Z,61.35
2022-08-21T03:50:57.871Z,59.86
2022-08-21T03:53:27.281Z,61.14
2022-08-21T03:55:55.581Z,59.60
2022-08-21T03:58:25.159Z,58.85
2022-08-21T04:00:55.182Z,58.75
2022-08-21T04:03:23.285Z,58.95
2022-08-21T04:05:53.098Z,58.49
2022-08-21T04:08:20.676Z,58.01
2022-08-21T04:10:51.320Z,57.62
2022-08-21T04:13:18.905Z,57.06
2022-08-21T04:15:46.490Z,55.14
2022-08-21T04:18:14.652Z,56.53
2022-08-21T04:20:45.440Z,55.91
2022-08-21T04:23:23.917Z,55.90
2022-08-21T04:25:53.182Z,54.87
2022-08-21T04:28:21.715Z,55.22
2022-08-21T04:30:51.951Z,55.05
2022-08-21T04:33:20.174Z,55.00
2022-08-21T04:35:48.064Z,54.21
2022-08-21T04:38:15.599Z,53.33
2022-08-21T04:40:43.270Z,54.12
2022-08-21T04:43:11.702Z,54.07
2022-08-21T04:45:41.213Z,53.88
2022-08-21T04:48:13.851Z,53.35
2022-08-21T04:50:51.620Z,53.38
2022-08-21T04:53:24.929Z,53.17
2022-08-21T04:55:54.175Z,52.76
2022-08-21T04:58:22.919Z,52.06
2022-08-21T05:00:53.424Z,51.89
2022-08-21T05:03:22.909Z,50.76
2022-08-21T05:05:50.735Z,51.54
2022-08-21T05:11:06.517Z,51.19
2022-08-21T05:13:34.479Z,50.71
2022-08-21T05:16:02.114Z,50.20
2022-08-21T05:18:30.536Z,48.54
2022-08-21T05:20:58.336Z,49.54
2022-08-21T05:23:26.218Z,49.82
2022-08-21T05:25:54.601Z,49.90
2022-08-21T05:28:22.193Z,49.97
2022-08-21T05:30:49.789Z,49.64
2022-08-21T05:33:17.700Z,49.70
2022-08-21T05:35:45.230Z,49.01
2022-08-21T05:38:17.851Z,49.22
2022-08-21T05:40:47.278Z,49.32
2022-08-21T05:43:15.948Z,49.16
2022-08-21T05:45:44.362Z,48.88
2022-08-21T05:48:17.113Z,48.20
2022-08-21T05:50:45.402Z,46.86
2022-08-21T05:53:14.810Z,44.76
2022-08-21T05:55:45.708Z,45.18
2022-08-21T05:58:18.369Z,44.62
2022-08-21T06:00:46.926Z,41.82
2022-08-21T06:03:18.180Z,43.23
2022-08-21T06:05:46.931Z,42.71
2022-08-21T06:08:18.235Z,43.22
2022-08-21T06:10:46.272Z,42.73
2022-08-21T06:13:14.428Z,42.19
2022-08-21T06:15:42.647Z,41.39
2022-08-21T06:18:10.209Z,41.21
2022-08-21T06:20:37.844Z,40.96
2022-08-21T06:23:06.144Z,40.84
2022-08-21T06:25:34.014Z,40.36
2022-08-21T06:28:04.719Z,40.10
2022-08-21T06:30:33.193Z,39.42
2022-08-21T06:33:01.281Z,39.43
2022-08-21T06:35:30.327Z,39.71
2022-08-21T06:37:59.044Z,39.29
2022-08-21T06:40:27.496Z,39.02
2022-08-21T06:42:59.628Z,38.28
2022-08-21T06:45:32.208Z,37.42
2022-08-21T06:48:00.898Z,37.71
2022-08-21T06:50:28.667Z,37.47
2022-08-21T06:53:12.993Z,37.27
2022-08-21T06:55:41.907Z,36.56
2022-08-21T06:58:09.478Z,36.35
2022-08-21T07:00:39.610Z,36.09
2022-08-21T07:03:07.883Z,36.52
2022-08-21T07:05:35.437Z,35.97
2022-08-21T07:08:03.110Z,35.79
2022-08-21T07:10:31.080Z,34.97
2022-08-21T07:13:00.461Z,35.21
2022-08-21T07:15:32.302Z,34.38
2022-08-21T07:18:01.033Z,34.08
2022-08-21T07:20:29.909Z,33.66
2022-08-21T07:23:00.494Z,32.62
2022-08-21T07:25:28.765Z,33.15
2022-08-21T07:27:56.719Z,32.91
2022-08-21T07:30:25.161Z,32.95
2022-08-21T07:32:53.319Z,32.24
2022-08-21T07:35:21.853Z,32.31
2022-08-21T07:37:49.674Z,32.69
2022-08-21T07:40:18.485Z,31.96
2022-08-21T07:42:47.899Z,30.40
2022-08-21T07:45:16.650Z,31.59
2022-08-21T07:47:44.811Z,26.48
2022-08-21T07:50:16.373Z,30.93
2022-08-21T07:52:45.160Z,31.21
2022-08-21T07:55:13.855Z,25.80
2022-08-21T07:57:41.544Z,32.21
2022-08-21T08:00:11.228Z,33.00
2022-08-21T08:02:40.214Z,34.17
2022-08-21T08:05:10.685Z,33.91
2022-08-21T08:07:38.732Z,33.75
2022-08-21T08:10:08.228Z,31.72
2022-08-21T08:12:38.828Z,31.68
2022-08-21T08:15:07.656Z,31.88
2022-08-21T08:17:35.387Z,28.44
2022-08-21T08:20:04.110Z,30.26
2022-08-21T08:22:31.678Z,29.26
2022-08-21T08:27:46.247Z,29.15
2022-08-21T08:30:16.231Z,32.42
2022-08-21T08:32:44.057Z,32.48
2022-08-21T08:35:13.028Z,32.97
2022-08-21T08:37:41.923Z,31.83
2022-08-21T08:40:15.323Z,32.19
2022-08-21T08:42:44.000Z,29.28
2022-08-21T08:45:13.171Z,31.47
2022-08-21T08:47:49.994Z,30.94
2022-08-21T08:50:18.112Z,29.89
2022-08-21T08:53:07.213Z,30.48
2022-08-21T08:55:40.137Z,29.64
2022-08-21T08:58:08.093Z,28.44
2022-08-21T09:00:35.814Z,27.49
2022-08-21T09:03:04.917Z,25.07
2022-08-21T09:05:38.390Z,27.04
2022-08-21T09:08:19.049Z,25.67
2022-08-21T09:10:52.795Z,27.41
2022-08-21T09:13:25.036Z,27.20
2022-08-21T09:16:15.513Z,24.39
2022-08-21T09:18:55.228Z,26.64
2022-08-21T09:21:33.280Z,25.37
2022-08-21T09:24:27.788Z,24.26
2022-08-21T09:27:08.402Z,27.30
2022-08-21T09:29:38.295Z,26.47
2022-08-21T09:32:13.414Z,26.98
2022-08-21T09:34:44.920Z,21.48
2022-08-21T09:37:19.736Z,26.84
2022-08-21T09:39:48.932Z,27.67
2022-08-21T09:42:24.314Z,28.09
2022-08-21T09:45:05.773Z,28.64
2022-08-21T09:47:33.527Z,26.52
2022-08-21T09:50:11.829Z,22.98
2022-08-21T09:52:44.812Z,27.46
2022-08-21T09:55:50.720Z,27.57
2022-08-21T09:58:19.717Z,22.49
2022-08-21T10:00:57.762Z,28.08
2022-08-21T10:03:26.243Z,27.98
2022-08-21T10:05:56.082Z,29.71
2022-08-21T10:08:27.694Z,27.36
2022-08-21T10:10:58.960Z,28.69
2022-08-21T10:13:46.929Z,28.06
2022-08-21T10:16:35.298Z,28.51
2022-08-21T10:19:03.672Z,29.14
2022-08-21T10:21:31.853Z,28.60
2022-08-21T10:24:02.573Z,29.23
2022-08-21T10:26:53.064Z,23.66
2022-08-21T10:29:45.493Z,28.47
2022-08-21T10:32:25.843Z,27.71
2022-08-21T10:35:03.902Z,26.55
2022-08-21T10:37:31.671Z,23.91
2022-08-21T10:40:02.568Z,27.25
2022-08-21T10:42:51.188Z,28.99
2022-08-21T10:45:21.864Z,27.97
2022-08-21T10:47:52.164Z,27.87
2022-08-21T10:50:26.046Z,28.99
2022-08-21T10:53:16.852Z,28.28
2022-08-21T10:55:53.816Z,29.21
2022-08-21T10:58:29.720Z,28.39
2022-08-21T11:01:06.137Z,28.15
2022-08-21T11:03:33.879Z,26.77
2022-08-21T11:06:12.874Z,28.81
2022-08-21T11:08:43.646Z,28.47
2022-08-21T11:11:15.704Z,28.70
2022-08-21T11:13:51.314Z,27.23
2022-08-21T11:16:39.160Z,29.86
2022-08-21T11:19:15.426Z,27.58
2022-08-21T11:21:50.091Z,29.83
2022-08-21T11:24:36.737Z,30.28
2022-08-21T11:27:12.255Z,29.52
2022-08-21T11:29:41.051Z,30.50
2022-08-21T11:32:14.867Z,30.72
2022-08-21T11:37:34.365Z,30.18
2022-08-21T11:40:06.289Z,28.10
2022-08-21T11:42:40.974Z,31.23
2022-08-21T11:45:08.654Z,30.34
2022-08-21T11:47:46.393Z,31.11
2022-08-21T11:50:34.817Z,31.28
2022-08-21T11:53:06.717Z,29.86
2022-08-21T11:55:38.858Z,31.66
2022-08-21T11:58:10.092Z,29.72
2022-08-21T12:00:42.560Z,31.92
2022-08-21T12:03:13.383Z,29.77
2022-08-21T12:05:42.348Z,30.34
2022-08-21T12:08:12.617Z,31.10
2022-08-21T12:11:02.132Z,31.24
2022-08-21T12:13:39.808Z,31.76
2022-08-21T12:16:11.171Z,31.35
2022-08-21T12:18:39.676Z,30.69
2022-08-21T12:21:07.291Z,28.86
2022-08-21T12:23:44.675Z,29.62
2022-08-21T12:26:21.888Z,26.96
2022-08-21T12:28:49.555Z,27.47
2022-08-21T12:31:22.182Z,26.38
2022-08-21T12:33:56.334Z,26.60
2022-08-21T12:36:27.323Z,27.55
2022-08-21T12:39:01.704Z,29.28
2022-08-21T12:41:34.848Z,26.91
2022-08-21T12:44:06.963Z,27.79
2022-08-21T12:46:45.902Z,30.94
2022-08-21T12:49:19.971Z,26.83
2022-08-21T12:51:57.659Z,26.43
2022-08-21T12:54:27.229Z,29.33
2022-08-21T12:57:03.793Z,26.72
2022-08-21T12:59:32.234Z,28.97
2022-08-21T13:02:02.795Z,27.22
2022-08-21T13:04:37.562Z,27.29
2022-08-21T13:07:14.335Z,24.92
2022-08-21T13:09:48.440Z,25.64
2022-08-21T13:12:17.695Z,23.90
2022-08-21T13:14:48.682Z,24.31
2022-08-21T13:17:25.637Z,25.10
2022-08-21T13:19:54.815Z,23.79
2022-08-21T13:22:34.348Z,23.61
2022-08-21T13:25:07.202Z,24.50
2022-08-21T13:27:35.834Z,25.32
2022-08-21T13:30:12.555Z,25.83
2022-08-21T13:32:43.333Z,26.36
2022-08-21T13:35:13.092Z,26.68
2022-08-21T13:37:42.455Z,29.60
2022-08-21T13:40:17.978Z,28.53
2022-08-21T13:42:46.678Z,30.47
2022-08-21T13:45:15.988Z,27.50
2022-08-21T13:47:45.035Z,29.98
2022-08-21T13:50:15.011Z,30.56
2022-08-21T13:52:52.654Z,31.04
2022-08-21T13:55:20.621Z,31.42
2022-08-21T13:57:48.342Z,27.74
2022-08-21T14:00:21.534Z,29.77
2022-08-21T14:02:54.286Z,29.94
2022-08-21T14:05:24.389Z,25.30
2022-08-21T14:07:54.184Z,25.54
2022-08-21T14:10:23.602Z,25.30
2022-08-21T14:12:53.518Z,24.54
2022-08-21T14:15:24.701Z,23.66
2022-08-21T14:17:52.614Z,24.97
2022-08-21T14:20:28.468Z,25.84
2022-08-21T14:22:56.976Z,25.04
2022-08-21T14:25:25.426Z,25.67
2022-08-21T14:28:00.375Z,26.49
2022-08-21T14:30:31.236Z,27.49
2022-08-21T14:33:00.105Z,28.47
2022-08-21T14:35:28.596Z,28.56
2022-08-21T14:37:57.575Z,28.70
2022-08-21T14:40:26.278Z,28.23
2022-08-21T14:42:54.794Z,31.41
2022-08-21T14:45:30.777Z,28.65
2022-08-21T14:48:00.074Z,29.31
2022-08-21T14:50:28.245Z,30.67
2022-08-21T14:52:58.480Z,30.82
2022-08-21T14:55:27.557Z,30.79
2022-08-21T14:57:59.677Z,30.48
2022-08-21T15:00:35.957Z,30.17
2022-08-21T15:03:04.248Z,30.47
2022-08-21T15:05:33.983Z,32.88
2022-08-21T15:08:02.556Z,30.25
2022-08-21T15:10:31.574Z,30.83
2022-08-21T15:12:59.731Z,33.53
2022-08-21T15:15:27.574Z,33.77
2022-08-21T15:17:55.805Z,32.92
2022-08-21T15:20:23.936Z,34.13
2022-08-21T15:22:51.628Z,33.23
2022-08-21T15:25:19.318Z,33.83
2022-08-21T15:27:47.324Z,33.68
2022-08-21T15:30:15.148Z,33.63
2022-08-21T15:32:43.041Z,33.33
2022-08-21T15:35:11.084Z,32.85
2022-08-21T15:37:38.853Z,33.36
2022-08-21T15:40:08.444Z,33.75
2022-08-21T15:42:39.422Z,33.87
2022-08-21T15:45:09.889Z,32.99
2022-08-21T15:47:39.335Z,34.11
2022-08-21T15:50:08.757Z,33.68
2022-08-21T15:52:36.876Z,32.69
2022-08-21T15:55:05.882Z,32.66
2022-08-21T15:57:33.551Z,33.32
2022-08-21T16:00:14.097Z,33.59
2022-08-21T16:02:44.685Z,33.62
2022-08-21T16:05:13.362Z,34.53
2022-08-21T16:07:41.050Z,34.85
2022-08-21T16:10:09.221Z,34.87
2022-08-21T16:12:44.921Z,34.06
2022-08-21T16:15:20.226Z,33.65
2022-08-21T16:17:50.292Z,35.93
2022-08-21T16:20:20.960Z,35.81
2022-08-21T16:25:36.233Z,36.07
2022-08-21T16:28:07.588Z,35.31
2022-08-21T16:30:38.485Z,36.38
2022-08-21T16:33:06.909Z,36.62
2022-08-21T16:35:34.539Z,36.12
2022-08-21T16:38:02.732Z,36.90
2022-08-21T16:40:30.534Z,35.90
2022-08-21T16:42:58.591Z,37.16
2022-08-21T16:45:29.902Z,36.66
2022-08-21T16:48:01.085Z,37.04
2022-08-21T16:50:29.295Z,36.75
2022-08-21T16:52:57.036Z,36.47
2022-08-21T16:55:24.718Z,36.97
2022-08-21T16:57:54.016Z,36.67
2022-08-21T17:00:21.924Z,37.33
2022-08-21T17:02:51.489Z,33.84
2022-08-21T17:05:20.038Z,37.22
2022-08-21T17:07:47.797Z,37.15
2022-08-21T17:10:17.067Z,37.50
2022-08-21T17:12:51.386Z,35.64
2022-08-21T17:15:21.799Z,34.32
2022-08-21T17:17:50.117Z,36.32
2022-08-21T17:20:18.251Z,37.16
2022-08-21T17:22:45.973Z,38.33
2022-08-21T17:25:14.213Z,38.15
2022-08-21T17:27:44.402Z,36.07
2022-08-21T17:30:12.930Z,39.19
2022-08-21T17:32:41.733Z,38.02
2022-08-21T17:35:09.848Z,34.59
2022-08-21T17:37:37.706Z,39.01
2022-08-21T17:40:10.847Z,39.51
2022-08-21T17:42:40.209Z,39.26
2022-08-21T17:45:09.911Z,37.84
2022-08-21T17:47:38.389Z,38.86
2022-08-21T17:50:07.022Z,40.43
2022-08-21T17:52:35.761Z,39.69
2022-08-21T17:55:04.310Z,39.22
2022-08-21T17:57:35.579Z,39.36
2022-08-21T18:00:06.268Z,39.45
2022-08-21T18:02:40.203Z,39.19
2022-08-21T18:05:09.521Z,37.57
2022-08-21T18:07:40.294Z,37.63
2022-08-21T18:10:11.516Z,39.84
2022-08-21T18:12:43.012Z,38.88
2022-08-21T18:15:12.743Z,39.98
2022-08-21T18:17:41.486Z,37.43
2022-08-21T18:20:09.852Z,38.79
2022-08-21T18:22:37.874Z,40.17
2022-08-21T18:25:06.046Z,38.90
2022-08-21T18:27:33.886Z,39.64
2022-08-21T18:30:04.987Z,38.36
2022-08-21T18:32:32.731Z,38.00
2022-08-21T18:35:05.696Z,40.12
2022-08-21T18:37:34.244Z,40.59
2022-08-21T18:40:09.626Z,37.96
2022-08-21T18:45:24.970Z,38.63
2022-08-21T18:47:54.129Z,38.84
2022-08-21T18:50:25.008Z,40.75
2022-08-21T18:52:54.659Z,39.44
2022-08-21T18:55:24.428Z,40.67
2022-08-21T18:57:53.474Z,38.73
2022-08-21T19:00:24.296Z,40.40
2022-08-21T19:02:52.624Z,38.77
2022-08-21T19:05:21.520Z,41.57
2022-08-21T19:07:51.770Z,39.94
2022-08-21T19:10:28.847Z,39.40
2022-08-21T19:13:01.455Z,41.07
2022-08-21T19:15:30.081Z,41.81
2022-08-21T19:17:58.744Z,41.18
2022-08-21T19:20:30.740Z,42.19
2022-08-21T19:22:58.797Z,42.02
2022-08-21T19:25:33.025Z,42.16
2022-08-21T19:28:03.465Z,42.12
2022-08-21T19:33:33.591Z,40.98
2022-08-21T19:36:01.758Z,39.75
2022-08-21T19:38:29.920Z,43.34
2022-08-21T19:40:58.310Z,41.42
2022-08-21T19:43:26.214Z,42.13
2022-08-21T19:45:57.558Z,43.32
2022-08-21T19:48:26.369Z,43.33
2022-08-21T19:50:54.258Z,40.79
2022-08-21T19:53:22.216Z,42.38
2022-08-21T19:55:50.901Z,44.08
2022-08-21T19:58:37.570Z,41.55
2022-08-21T20:01:16.316Z,40.58
2022-08-21T20:05:02.669Z,43.53
2022-08-21T20:07:31.019Z,43.53
2022-08-21T20:10:00.030Z,44.43
2022-08-21T20:12:28.093Z,41.60
2022-08-21T20:14:57.148Z,41.54
2022-08-21T20:17:25.655Z,42.86
2022-08-21T20:22:42.408Z,43.97
2022-08-21T20:25:10.397Z,45.09
2022-08-21T20:27:40.578Z,43.08
2022-08-21T20:30:10.115Z,44.99
2022-08-21T20:32:38.267Z,44.49
2022-08-21T20:40:45.628Z,45.68
2022-08-21T20:43:14.671Z,45.12
2022-08-21T20:45:43.719Z,41.84
2022-08-21T20:48:23.612Z,45.79
2022-08-21T20:51:02.841Z,43.93
2022-08-21T20:53:46.843Z,43.80
2022-08-21T20:56:30.236Z,44.12
2022-08-21T20:59:22.887Z,41.71
2022-08-21T21:01:54.177Z,45.14
2022-08-21T21:04:43.221Z,46.02
2022-08-21T21:07:18.616Z,45.48
2022-08-21T21:09:49.618Z,44.38
2022-08-21T21:12:30.754Z,45.72
2022-08-21T21:15:05.504Z,46.02
2022-08-21T21:18:13.258Z,45.31
2022-08-21T21:24:00.459Z,44.57
2022-08-21T21:26:46.145Z,46.97
2022-08-21T21:29:39.471Z,44.65
2022-08-21T21:32:10.188Z,46.52
2022-08-21T21:34:51.176Z,48.04
2022-08-21T21:37:37.426Z,45.25
2022-08-21T21:40:29.686Z,45.71
2022-08-21T21:43:05.503Z,48.20
2022-08-21T21:45:55.232Z,47.32
2022-08-21T21:48:41.294Z,48.02
2022-08-21T21:51:47.633Z,47.41
2022-08-21T21:54:43.536Z,45.50
2022-08-21T21:57:43.294Z,46.88
2022-08-21T22:00:21.092Z,45.78
2022-08-21T22:02:55.258Z,47.60
2022-08-21T22:05:43.127Z,48.96
2022-08-21T22:08:30.278Z,49.23
2022-08-21T22:11:08.976Z,49.69
2022-08-21T22:14:16.818Z,48.12
2022-08-21T22:16:51.215Z,50.23
2022-08-21T22:19:25.061Z,47.71
2022-08-21T22:22:01.004Z,48.43
2022-08-21T22:24:35.726Z,48.71
2022-08-21T22:27:09.560Z,47.36
2022-08-21T22:29:44.563Z,48.59
2022-08-21T22:32:13.588Z,49.01
2022-08-21T22:34:42.906Z,49.71
2022-08-21T22:37:12.404Z,50.47
2022-08-21T22:42:31.573Z,50.23
2022-08-21T22:45:04.742Z,48.17
2022-08-21T22:47:45.097Z,50.68
2022-08-21T22:50:27.379Z,49.65
2022-08-21T22:53:00.886Z,48.67
2022-08-21T22:55:55.223Z,48.59
2022-08-21T22:58:27.538Z,50.12
2022-08-21T23:01:00.846Z,49.46
2022-08-21T23:03:47.672Z,49.31
2022-08-21T23:06:36.110Z,49.83
2022-08-21T23:09:17.566Z,49.69
2022-08-21T23:11:50.887Z,48.07
2022-08-21T23:14:35.271Z,48.98
2022-08-21T23:17:14.449Z,48.44
2022-08-21T23:20:03.591Z,50.02
2022-08-21T23:22:37.369Z,48.59
2022-08-21T23:25:28.350Z,48.73
2022-08-21T23:28:23.985Z,49.24
2022-08-21T23:31:13.734Z,50.32
2022-08-21T23:34:20.179Z,47.75
2022-08-21T23:37:23.193Z,47.57
2022-08-21T23:40:15.058Z,48.73
2022-08-21T23:43:13.156Z,48.66
2022-08-21T23:46:07.621Z,49.51
2022-08-21T23:49:06.038Z,48.78
2022-08-21T23:55:00.287Z,47.91
